Time,TemperatureF,DewpointF,PressureIn,WindDirection,WindDirectionDegrees,WindSpeedMPH,WindSpeedGustMPH,Humidity,HourlyPrecipIn,Conditions,Clouds,dailyrainin,SolarRadiationWatts/m^2,SoftwareType,DateUTC
2013-05-17 00:00:00,47.6,35.6,29.65,WNW,300,5.0,6.0,63,0.00,,,0.00,0,Wunderground v.1.15,2013-05-17 06:00:00,
2013-05-17 00:10:00,47.8,35.4,29.65,NE,40,4.0,4.0,62,0.00,,,0.00,0,Wunderground v.1.15,2013-05-17 06:10:00,
2013-05-17 00:20:00,48.9,36.4,29.65,West,280,5.0,5.0,62,0.00,,,0.00,0,Wunderground v.1.15,2013-05-17 06:20:00,
2013-05-17 00:30:00,49.0,35.7,29.65,West,280,0.0,0.0,60,0.00,,,0.00,0,Wunderground v.1.15,2013-05-17 06:30:00,
2013-05-17 00:40:00,48.5,35.2,29.66,SE,140,1.0,5.0,60,0.00,,,0.00,0,Wunderground v.1.15,2013-05-17 06:40:00,
2013-05-17 00:50:00,48.0,35.2,29.66,South,190,3.0,3.0,61,0.00,,,0.00,0,Wunderground v.1.15,2013-05-17 06:50:00,
2013-05-17 01:00:00,47.7,35.3,29.66,SSW,205,0.0,0.0,62,0.00,,,0.00,0,Wunderground v.1.15,2013-05-17 07:00:00,
2013-05-17 01:10:00,46.5,35.0,29.66,North,360,1.0,4.0,64,0.00,,,0.00,0,Wunderground v.1.15,2013-05-17 07:10:00,
2013-05-17 01:20:00,45.4,35.1,29.66,WNW,300,3.0,3.0,67,0.00,,,0.00,0,Wunderground v.1.15,2013-05-17 07:20:00,
2013-05-17 01:30:00,44.7,34.4,29.65,WNW,300,0.0,0.0,67,0.00,,,0.00,0,Wunderground v.1.15,2013-05-17 07:30:00,
2013-05-17 01:40:00,43.7,34.2,29.65,WNW,300,0.0,0.0,69,0.00,,,0.00,0,Wunderground v.1.15,2013-05-17 07:40:00,
2013-05-17 01:50:00,43.1,35.0,29.65,WNW,300,2.0,2.0,73,0.00,,,0.00,0,Wunderground v.1.15,2013-05-17 07:50:00,
2013-05-17 02:00:00,42.5,34.1,29.65,WNW,300,2.0,2.0,72,0.00,,,0.00,0,Wunderground v.1.15,2013-05-17 08:00:00,
2013-05-17 02:10:00,42.2,34.2,29.65,WNW,300,2.0,3.0,73,0.00,,,0.00,0,Wunderground v.1.15,2013-05-17 08:10:00,
2013-05-17 02:20:00,42.1,34.1,29.65,WNW,300,2.0,4.0,73,0.00,,,0.00,0,Wunderground v.1.15,2013-05-17 08:20:00,
2013-05-17 02:30:00,41.9,34.2,29.64,WNW,300,3.0,3.0,74,0.00,,,0.00,0,Wunderground v.1.15,2013-05-17 08:30:00,
2013-05-17 02:40:00,42.0,35.0,29.64,WNW,300,3.0,3.0,76,0.00,,,0.00,0,Wunderground v.1.15,2013-05-17 08:40:00,
2013-05-17 02:50:00,41.7,34.4,29.64,WNW,300,3.0,3.0,75,0.00,,,0.00,0,Wunderground v.1.15,2013-05-17 08:50:00,
2013-05-17 03:00:00,41.1,33.4,29.64,WNW,300,0.0,0.0,74,0.00,,,0.00,0,Wunderground v.1.15,2013-05-17 09:00:00,
2013-05-17 03:11:00,40.6,33.6,29.64,WNW,300,1.0,1.0,76,0.00,,,0.00,0,Wunderground v.1.15,2013-05-17 09:11:00,
2013-05-17 03:20:00,40.8,34.5,29.64,WNW,300,0.0,3.0,78,0.00,,,0.00,0,Wunderground v.1.15,2013-05-17 09:20:00,
2013-05-17 03:30:00,40.9,33.6,29.63,WNW,297,3.0,3.0,75,0.00,,,0.00,0,Wunderground v.1.15,2013-05-17 09:30:00,
2013-05-17 03:40:00,40.9,34.2,29.63,WNW,297,2.0,2.0,77,0.00,,,0.00,0,Wunderground v.1.15,2013-05-17 09:40:00,
2013-05-17 03:50:00,40.6,34.3,29.63,WNW,297,0.0,0.0,78,0.00,,,0.00,0,Wunderground v.1.15,2013-05-17 09:50:00,
2013-05-17 04:00:00,40.4,34.4,29.64,WNW,297,2.0,2.0,79,0.00,,,0.00,0,Wunderground v.1.15,2013-05-17 10:00:00,
2013-05-17 04:10:00,40.4,34.4,29.64,WNW,297,0.0,0.0,79,0.00,,,0.00,0,Wunderground v.1.15,2013-05-17 10:10:00,
2013-05-17 04:20:00,39.9,33.6,29.63,WNW,297,0.0,0.0,78,0.00,,,0.00,0,Wunderground v.1.15,2013-05-17 10:20:00,
2013-05-17 04:30:00,39.7,33.7,29.63,WNW,297,0.0,0.0,79,0.00,,,0.00,0,Wunderground v.1.15,2013-05-17 10:30:00,
2013-05-17 04:40:00,40.1,34.4,29.63,WNW,297,0.0,0.0,80,0.00,,,0.00,0,Wunderground v.1.15,2013-05-17 10:40:00,
2013-05-17 04:50:00,40.6,34.6,29.63,WNW,302,0.0,0.0,79,0.00,,,0.00,0,Wunderground v.1.15,2013-05-17 10:50:00,
2013-05-17 05:00:00,40.5,34.2,29.63,WNW,302,0.0,0.0,78,0.00,,,0.00,0,Wunderground v.1.15,2013-05-17 11:00:00,
2013-05-17 05:10:00,39.7,33.1,29.63,WNW,302,1.0,2.0,77,0.00,,,0.00,0,Wunderground v.1.15,2013-05-17 11:10:00,
2013-05-17 05:20:00,39.2,33.2,29.63,WNW,302,2.0,3.0,79,0.00,,,0.00,0,Wunderground v.1.15,2013-05-17 11:20:00,
2013-05-17 05:30:00,39.6,33.0,29.63,WSW,250,1.0,1.0,77,0.00,,,0.00,0,Wunderground v.1.15,2013-05-17 11:30:00,
2013-05-17 05:40:00,40.1,33.8,29.64,WSW,250,1.0,1.0,78,0.00,,,0.00,7,Wunderground v.1.15,2013-05-17 11:40:00,
2013-05-17 05:50:00,40.5,34.2,29.64,WSW,250,0.0,0.0,78,0.00,,,0.00,11,Wunderground v.1.15,2013-05-17 11:50:00,
2013-05-17 06:00:00,40.4,33.8,29.64,WSW,250,0.0,0.0,77,0.00,,,0.00,25,Wunderground v.1.15,2013-05-17 12:00:00,
2013-05-17 06:10:00,40.9,34.6,29.65,WSW,250,0.0,0.0,78,0.00,,,0.00,47,Wunderground v.1.15,2013-05-17 12:10:00,
2013-05-17 06:20:00,41.7,35.7,29.65,WSW,250,0.0,0.0,79,0.00,,,0.00,63,Wunderground v.1.15,2013-05-17 12:20:00,
2013-05-17 06:30:00,42.8,34.7,29.65,WSW,250,0.0,0.0,73,0.00,,,0.00,63,Wunderground v.1.15,2013-05-17 12:30:00,
2013-05-17 06:40:00,43.7,35.3,29.65,WSW,250,0.0,0.0,72,0.00,,,0.00,88,Wunderground v.1.15,2013-05-17 12:40:00,
2013-05-17 06:50:00,45.0,36.9,29.66,WSW,256,0.0,0.0,73,0.00,,,0.00,104,Wunderground v.1.15,2013-05-17 12:50:00,
2013-05-17 07:10:00,47.1,35.1,29.67,WSW,237,0.0,0.0,63,0.00,,,0.00,109,Wunderground v.1.15,2013-05-17 13:10:00,
2013-05-17 07:20:00,48.6,33.1,29.67,WSW,247,2.0,8.0,55,0.00,,,0.00,102,Wunderground v.1.15,2013-05-17 13:20:00,
2013-05-17 07:31:00,51.1,33.1,29.67,WSW,242,7.0,7.0,50,0.00,,,0.00,121,Wunderground v.1.15,2013-05-17 13:31:00,
2013-05-17 07:40:00,51.9,32.8,29.67,West,266,9.0,10.0,48,0.00,,,0.00,139,Wunderground v.1.15,2013-05-17 13:40:00,
2013-05-17 07:50:00,52.3,32.6,29.67,West,277,8.0,8.0,47,0.00,,,0.00,149,Wunderground v.1.15,2013-05-17 13:50:00,
2013-05-17 08:00:00,52.6,32.4,29.67,West,264,8.0,8.0,46,0.00,,,0.00,165,Wunderground v.1.15,2013-05-17 14:00:00,
2013-05-17 08:10:00,52.9,32.1,29.67,WSW,242,8.0,8.0,45,0.00,,,0.00,193,Wunderground v.1.15,2013-05-17 14:10:00,
2013-05-17 08:20:00,53.6,32.2,29.68,WSW,251,8.0,12.0,44,0.00,,,0.00,262,Wunderground v.1.15,2013-05-17 14:20:00,
2013-05-17 08:30:00,54.7,32.6,29.68,WNW,294,9.0,11.0,43,0.00,,,0.00,366,Wunderground v.1.15,2013-05-17 14:30:00,
2013-05-17 08:40:00,55.4,31.5,29.68,SW,229,8.0,9.0,40,0.00,,,0.00,387,Wunderground v.1.15,2013-05-17 14:40:00,
2013-05-17 08:50:00,56.3,33.5,29.68,SW,218,7.0,7.0,42,0.00,,,0.00,399,Wunderground v.1.15,2013-05-17 14:50:00,
2013-05-17 09:10:00,59.0,32.7,29.67,SSW,192,2.0,7.0,37,0.00,,,0.00,513,Wunderground v.1.15,2013-05-17 15:10:00,
2013-05-17 09:20:00,60.2,33.8,29.67,SSE,165,7.0,10.0,37,0.00,,,0.00,540,Wunderground v.1.15,2013-05-17 15:20:00,
2013-05-17 09:30:00,61.3,31.9,29.66,SSE,156,8.0,10.0,33,0.00,,,0.00,703,Wunderground v.1.15,2013-05-17 15:30:00,
2013-05-17 09:40:00,62.5,32.2,29.66,South,172,8.0,8.0,32,0.00,,,0.00,619,Wunderground v.1.15,2013-05-17 15:40:00,
2013-05-17 09:50:00,63.0,31.9,29.66,ESE,104,7.0,7.0,31,0.00,,,0.00,661,Wunderground v.1.15,2013-05-17 15:50:00,
2013-05-17 10:00:00,63.8,31.7,29.66,ESE,106,6.0,6.0,30,0.00,,,0.00,793,Wunderground v.1.15,2013-05-17 16:00:00,
2013-05-17 10:10:00,64.4,32.3,29.66,SSE,159,9.0,9.0,30,0.00,,,0.00,798,Wunderground v.1.15,2013-05-17 16:10:00,
2013-05-17 10:21:00,65.3,33.9,29.65,South,188,8.0,10.0,31,0.00,,,0.00,856,Wunderground v.1.15,2013-05-17 16:21:00,
2013-05-17 10:30:00,65.0,33.6,29.65,SE,142,9.0,13.0,31,0.00,,,0.00,853,Wunderground v.1.15,2013-05-17 16:30:00,
2013-05-17 10:40:00,65.8,29.9,29.65,WSW,242,10.0,10.0,26,0.00,,,0.00,877,Wunderground v.1.15,2013-05-17 16:40:00,
2013-05-17 10:51:00,66.0,31.9,29.65,SSW,198,9.0,17.0,28,0.00,,,0.00,949,Wunderground v.1.15,2013-05-17 16:51:00,
2013-05-17 11:00:00,65.4,29.6,29.65,SE,144,8.0,8.0,26,0.00,,,0.00,951,Wunderground v.1.15,2013-05-17 17:00:00,
2013-05-17 11:10:00,65.3,29.5,29.65,SSW,213,8.0,8.0,26,0.00,,,0.00,241,Wunderground v.1.15,2013-05-17 17:10:00,
2013-05-17 11:30:00,67.1,25.8,29.65,SW,236,11.0,11.0,21,0.00,,,0.00,986,Wunderground v.1.15,2013-05-17 17:30:00,
2013-05-17 11:40:00,67.1,26.9,29.65,SW,229,10.0,14.0,22,0.00,,,0.00,1004,Wunderground v.1.15,2013-05-17 17:40:00,
2013-05-17 11:50:00,67.6,27.4,29.65,South,191,10.0,12.0,22,0.00,,,0.00,1030,Wunderground v.1.15,2013-05-17 17:50:00,
2013-05-17 12:00:00,67.6,29.5,29.65,SSW,211,8.0,11.0,24,0.00,,,0.00,1048,Wunderground v.1.15,2013-05-17 18:00:00,
2013-05-17 12:10:00,67.1,24.6,29.65,West,265,9.0,18.0,20,0.00,,,0.00,1044,Wunderground v.1.15,2013-05-17 18:10:00,
2013-05-17 12:20:00,67.8,25.2,29.65,South,175,8.0,8.0,20,0.00,,,0.00,1048,Wunderground v.1.15,2013-05-17 18:20:00,
2013-05-17 12:30:00,67.3,23.6,29.65,SE,138,9.0,9.0,19,0.00,,,0.00,1039,Wunderground v.1.15,2013-05-17 18:30:00,
2013-05-17 12:40:00,67.2,25.9,29.65,WNW,284,10.0,10.0,21,0.00,,,0.00,1032,Wunderground v.1.15,2013-05-17 18:40:00,
2013-05-17 12:50:00,66.7,25.5,29.65,NW,306,6.0,6.0,21,0.00,,,0.00,1039,Wunderground v.1.15,2013-05-17 18:50:00,
2013-05-17 13:10:00,67.8,27.5,29.64,SSW,199,7.0,16.0,22,0.00,,,0.00,1118,Wunderground v.1.15,2013-05-17 19:10:00,
2013-05-17 13:30:00,68.1,28.9,29.63,SSW,194,10.0,14.0,23,0.00,,,0.00,1088,Wunderground v.1.15,2013-05-17 19:30:00,
2013-05-17 13:40:00,69.3,26.5,29.63,SSE,161,8.0,10.0,20,0.00,,,0.00,1120,Wunderground v.1.15,2013-05-17 19:40:00,
2013-05-17 14:00:00,69.4,27.7,29.63,SW,231,8.0,10.0,21,0.00,,,0.00,1072,Wunderground v.1.15,2013-05-17 20:00:00,
2013-05-17 14:10:00,69.2,25.1,29.62,South,175,7.0,15.0,19,0.00,,,0.00,1106,Wunderground v.1.15,2013-05-17 20:10:00,
2013-05-17 14:21:00,69.3,27.7,29.62,South,187,8.0,21.0,21,0.00,,,0.00,322,Wunderground v.1.15,2013-05-17 20:21:00,
2013-05-17 14:30:00,69.9,28.2,29.62,SSW,212,8.0,21.0,21,0.00,,,0.00,1071,Wunderground v.1.15,2013-05-17 20:30:00,
2013-05-17 14:40:00,69.0,28.5,29.62,South,188,8.0,8.0,22,0.00,,,0.00,1025,Wunderground v.1.15,2013-05-17 20:40:00,
2013-05-17 14:50:00,70.0,29.4,29.61,SSE,163,8.0,11.0,22,0.00,,,0.00,946,Wunderground v.1.15,2013-05-17 20:50:00,
2013-05-17 15:00:00,69.9,25.7,29.61,WSW,249,11.0,11.0,19,0.00,,,0.00,833,Wunderground v.1.15,2013-05-17 21:00:00,
2013-05-17 15:10:00,69.1,23.8,29.62,WSW,246,8.0,8.0,18,0.00,,,0.00,301,Wunderground v.1.15,2013-05-17 21:10:00,
2013-05-17 15:20:00,68.1,26.7,29.62,SSE,163,6.0,8.0,21,0.00,,,0.00,369,Wunderground v.1.15,2013-05-17 21:20:00,
2013-05-17 15:30:00,68.1,26.7,29.62,SSW,209,7.0,10.0,21,0.00,,,0.00,466,Wunderground v.1.15,2013-05-17 21:30:00,
2013-05-17 15:40:00,67.7,23.9,29.61,SSE,157,7.0,7.0,19,0.00,,,0.00,390,Wunderground v.1.15,2013-05-17 21:40:00,
2013-05-17 15:50:00,67.7,23.9,29.62,South,180,6.0,12.0,19,0.00,,,0.00,394,Wunderground v.1.15,2013-05-17 21:50:00,
2013-05-17 16:00:00,67.2,22.2,29.62,SW,219,8.0,15.0,18,0.00,,,0.00,432,Wunderground v.1.15,2013-05-17 22:00:00,
2013-05-17 16:10:00,67.6,22.5,29.62,South,184,9.0,12.0,18,0.00,,,0.00,527,Wunderground v.1.15,2013-05-17 22:10:00,
2013-05-17 16:30:00,67.1,25.8,29.61,SSW,200,5.0,11.0,21,0.00,,,0.00,353,Wunderground v.1.15,2013-05-17 22:30:00,
2013-05-17 16:40:00,67.1,24.6,29.62,WSW,248,4.0,6.0,20,0.00,,,0.00,408,Wunderground v.1.15,2013-05-17 22:40:00,
2013-05-17 16:51:00,67.1,24.6,29.62,South,178,5.0,6.0,20,0.00,,,0.00,548,Wunderground v.1.15,2013-05-17 22:51:00,
2013-05-17 17:00:00,67.0,24.6,29.61,SE,140,7.0,8.0,20,0.00,,,0.00,496,Wunderground v.1.15,2013-05-17 23:00:00,
2013-05-17 17:10:00,67.9,26.5,29.62,WSW,239,7.0,7.0,21,0.00,,,0.00,552,Wunderground v.1.15,2013-05-17 23:10:00,
2013-05-17 17:20:00,67.9,25.3,29.61,South,179,5.0,5.0,20,0.00,,,0.00,457,Wunderground v.1.15,2013-05-17 23:20:00,
2013-05-17 17:30:00,67.0,26.9,29.62,SSW,202,7.0,7.0,22,0.00,,,0.00,260,Wunderground v.1.15,2013-05-17 23:30:00,
2013-05-17 17:40:00,66.3,24.0,29.62,SW,232,7.0,7.0,20,0.00,,,0.00,244,Wunderground v.1.15,2013-05-17 23:40:00,
2013-05-17 17:50:00,65.3,23.2,29.62,South,186,6.0,6.0,20,0.00,,,0.00,190,Wunderground v.1.15,2013-05-17 23:50:00,
2013-05-17 18:00:00,64.9,24.0,29.62,South,176,3.0,3.0,21,0.00,,,0.00,290,Wunderground v.1.15,2013-05-18 00:00:00,
2013-05-17 18:10:00,65.1,23.0,29.62,SSW,209,5.0,5.0,20,0.00,,,0.00,327,Wunderground v.1.15,2013-05-18 00:10:00,
2013-05-17 18:30:00,64.7,22.7,29.61,SSW,192,2.0,2.0,20,0.00,,,0.00,134,Wunderground v.1.15,2013-05-18 00:30:00,
2013-05-17 18:40:00,63.5,22.8,29.61,SE,140,4.0,4.0,21,0.00,,,0.00,111,Wunderground v.1.15,2013-05-18 00:40:00,
2013-05-17 18:50:00,62.9,22.3,29.61,SE,146,1.0,1.0,21,0.00,,,0.00,102,Wunderground v.1.15,2013-05-18 00:50:00,
2013-05-17 19:00:00,62.4,21.9,29.61,SE,141,5.0,9.0,21,0.00,,,0.00,102,Wunderground v.1.15,2013-05-18 01:00:00,
2013-05-17 19:10:00,62.2,21.7,29.61,SE,136,3.0,3.0,21,0.00,,,0.00,86,Wunderground v.1.15,2013-05-18 01:10:00,
2013-05-17 19:30:00,61.6,24.4,29.61,South,186,1.0,1.0,24,0.00,,,0.00,47,Wunderground v.1.15,2013-05-18 01:30:00,
2013-05-17 19:40:00,60.6,29.0,29.61,SSW,199,0.0,0.0,30,0.00,,,0.00,42,Wunderground v.1.15,2013-05-18 01:40:00,
2013-05-17 19:50:00,59.4,31.0,29.60,SSW,199,0.0,0.0,34,0.00,,,0.00,35,Wunderground v.1.15,2013-05-18 01:50:00,
2013-05-17 20:00:00,58.6,31.7,29.61,WSW,256,1.0,1.0,36,0.00,,,0.00,19,Wunderground v.1.15,2013-05-18 02:00:00,
2013-05-17 20:10:00,57.2,29.8,29.61,WSW,256,0.0,0.0,35,0.00,,,0.00,11,Wunderground v.1.15,2013-05-18 02:10:00,
2013-05-17 20:21:00,55.7,30.5,29.61,SW,227,1.0,4.0,38,0.00,,,0.00,0,Wunderground v.1.15,2013-05-18 02:21:00,
2013-05-17 20:30:00,54.4,28.6,29.61,West,275,2.0,4.0,37,0.00,,,0.00,0,Wunderground v.1.15,2013-05-18 02:30:00,
2013-05-17 20:40:00,52.0,28.4,29.62,WSW,238,2.0,2.0,40,0.00,,,0.00,0,Wunderground v.1.15,2013-05-18 02:40:00,
2013-05-17 20:50:00,50.8,27.3,29.63,West,263,1.0,1.0,40,0.00,,,0.00,0,Wunderground v.1.15,2013-05-18 02:50:00,
2013-05-17 21:00:00,50.3,23.0,29.63,South,188,1.0,1.0,34,0.00,,,0.00,0,Wunderground v.1.15,2013-05-18 03:00:00,
2013-05-17 21:10:00,49.8,28.7,29.63,WNW,291,2.0,2.0,44,0.00,,,0.00,0,Wunderground v.1.15,2013-05-18 03:10:00,
2013-05-17 21:20:00,49.4,28.4,29.64,WNW,287,1.0,1.0,44,0.00,,,0.00,0,Wunderground v.1.15,2013-05-18 03:20:00,
2013-05-17 21:31:00,49.4,25.4,29.65,WSW,257,2.0,5.0,39,0.00,,,0.00,0,Wunderground v.1.15,2013-05-18 03:31:00,
2013-05-17 21:40:00,49.3,27.2,29.65,West,281,2.0,5.0,42,0.00,,,0.00,0,Wunderground v.1.15,2013-05-18 03:40:00,
2013-05-17 21:50:00,52.8,20.5,29.65,WNW,298,7.0,7.0,28,0.00,,,0.00,0,Wunderground v.1.15,2013-05-18 03:50:00,
2013-05-17 22:00:00,55.0,24.9,29.66,West,270,6.0,6.0,31,0.00,,,0.00,0,Wunderground v.1.15,2013-05-18 04:00:00,
2013-05-17 22:10:00,52.5,25.6,29.66,West,273,4.0,8.0,35,0.00,,,0.00,0,Wunderground v.1.15,2013-05-18 04:10:00,
2013-05-17 22:20:00,51.1,23.7,29.65,WSW,248,6.0,6.0,34,0.00,,,0.00,0,Wunderground v.1.15,2013-05-18 04:20:00,
2013-05-17 22:40:00,51.2,23.0,29.66,West,263,7.0,9.0,33,0.00,,,0.00,0,Wunderground v.1.15,2013-05-18 04:40:00,
2013-05-17 22:50:00,51.0,22.9,29.66,West,259,8.0,8.0,33,0.00,,,0.00,0,Wunderground v.1.15,2013-05-18 04:50:00,
2013-05-17 23:00:00,51.2,20.8,29.65,West,265,8.0,8.0,30,0.00,,,0.00,0,Wunderground v.1.15,2013-05-18 05:00:00,
2013-05-17 23:10:00,52.0,22.3,29.64,West,267,9.0,9.0,31,0.00,,,0.00,0,Wunderground v.1.15,2013-05-18 05:10:00,
2013-05-17 23:20:00,52.4,20.2,29.64,West,271,9.0,9.0,28,0.00,,,0.00,0,Wunderground v.1.15,2013-05-18 05:20:00,
2013-05-17 23:30:00,52.1,19.9,29.63,West,275,9.0,10.0,28,0.00,,,0.00,0,Wunderground v.1.15,2013-05-18 05:30:00,
2013-05-17 23:40:00,51.3,20.1,29.63,West,270,9.0,9.0,29,0.00,,,0.00,0,Wunderground v.1.15,2013-05-18 05:40:00,
2013-05-17 23:50:00,50.1,19.8,29.63,WNW,286,9.0,12.0,30,0.00,,,0.00,0,Wunderground v.1.15,2013-05-18 05:50:00,